sensor_id;sensor_type;location;lat;lon;timestamp;P1;durP1;ratioP1;P2;durP2;ratioP2
77304;SDS011;66364;52.622;7.746;2023-07-30T00:00:37;5.33;;;4.55;;
77304;SDS011;66364;52.622;7.746;2023-07-30T00:02:38;8.90;;;5.50;;
77304;SDS011;66364;52.622;7.746;2023-07-30T00:04:39;5.12;;;4.33;;
77304;SDS011;66364;52.622;7.746;2023-07-30T00:06:40;5.47;;;4.95;;
77304;SDS011;66364;52.622;7.746;2023-07-30T00:08:41;6.40;;;4.83;;
77304;SDS011;66364;52.622;7.746;2023-07-30T00:10:42;5.80;;;4.90;;
77304;SDS011;66364;52.622;7.746;2023-07-30T00:12:43;6.42;;;5.83;;
77304;SDS011;66364;52.622;7.746;2023-07-30T00:14:44;5.60;;;4.47;;
77304;SDS011;66364;52.622;7.746;2023-07-30T00:16:45;6.15;;;4.55;;
77304;SDS011;66364;52.622;7.746;2023-07-30T00:18:48;6.28;;;4.28;;
77304;SDS011;66364;52.622;7.746;2023-07-30T00:20:49;6.25;;;3.62;;
77304;SDS011;66364;52.622;7.746;2023-07-30T00:22:51;18.20;;;5.17;;
77304;SDS011;66364;52.622;7.746;2023-07-30T00:24:52;5.17;;;3.77;;
77304;SDS011;66364;52.622;7.746;2023-07-30T00:26:59;4.05;;;3.67;;
77304;SDS011;66364;52.622;7.746;2023-07-30T00:29:02;4.40;;;4.00;;
77304;SDS011;66364;52.622;7.746;2023-07-30T00:31:03;7.67;;;5.03;;
77304;SDS011;66364;52.622;7.746;2023-07-30T00:33:03;9.03;;;4.30;;
77304;SDS011;66364;52.622;7.746;2023-07-30T00:35:07;7.70;;;4.22;;
77304;SDS011;66364;52.622;7.746;2023-07-30T00:37:09;3.83;;;3.42;;
77304;SDS011;66364;52.622;7.746;2023-07-30T00:39:11;8.17;;;4.10;;
77304;SDS011;66364;52.622;7.746;2023-07-30T00:41:12;6.00;;;3.80;;
77304;SDS011;66364;52.622;7.746;2023-07-30T00:43:13;5.85;;;3.95;;
77304;SDS011;66364;52.622;7.746;2023-07-30T00:45:14;11.83;;;4.33;;
77304;SDS011;66364;52.622;7.746;2023-07-30T00:47:15;6.75;;;3.80;;
77304;SDS011;66364;52.622;7.746;2023-07-30T00:49:17;5.72;;;3.75;;
77304;SDS011;66364;52.622;7.746;2023-07-30T00:51:18;5.65;;;3.80;;
77304;SDS011;66364;52.622;7.746;2023-07-30T00:53:20;8.50;;;4.33;;
77304;SDS011;66364;52.622;7.746;2023-07-30T00:55:22;7.25;;;3.45;;
77304;SDS011;66364;52.622;7.746;2023-07-30T00:57:24;5.45;;;3.70;;
77304;SDS011;66364;52.622;7.746;2023-07-30T00:59:26;6.58;;;2.83;;
77304;SDS011;66364;52.622;7.746;2023-07-30T01:01:29;5.40;;;3.67;;
77304;SDS011;66364;52.622;7.746;2023-07-30T01:03:33;6.70;;;3.33;;
77304;SDS011;66364;52.622;7.746;2023-07-30T01:05:34;6.25;;;3.83;;
77304;SDS011;66364;52.622;7.746;2023-07-30T01:07:35;5.57;;;3.37;;
77304;SDS011;66364;52.622;7.746;2023-07-30T01:09:36;4.83;;;4.43;;
77304;SDS011;66364;52.622;7.746;2023-07-30T01:11:37;9.43;;;3.20;;
77304;SDS011;66364;52.622;7.746;2023-07-30T01:13:39;5.75;;;3.50;;
77304;SDS011;66364;52.622;7.746;2023-07-30T01:15:42;9.15;;;4.35;;
77304;SDS011;66364;52.622;7.746;2023-07-30T01:17:43;11.53;;;3.65;;
77304;SDS011;66364;52.622;7.746;2023-07-30T01:19:45;8.18;;;3.95;;
77304;SDS011;66364;52.622;7.746;2023-07-30T01:21:46;11.70;;;3.67;;
77304;SDS011;66364;52.622;7.746;2023-07-30T01:23:47;5.17;;;2.70;;
77304;SDS011;66364;52.622;7.746;2023-07-30T01:25:48;6.67;;;3.42;;
77304;SDS011;66364;52.622;7.746;2023-07-30T01:27:52;7.92;;;3.90;;
77304;SDS011;66364;52.622;7.746;2023-07-30T01:30:00;8.35;;;3.58;;
77304;SDS011;66364;52.622;7.746;2023-07-30T01:32:04;11.20;;;3.72;;
77304;SDS011;66364;52.622;7.746;2023-07-30T01:34:07;5.80;;;2.83;;
77304;SDS011;66364;52.622;7.746;2023-07-30T01:36:11;6.80;;;3.15;;
77304;SDS011;66364;52.622;7.746;2023-07-30T01:38:15;7.33;;;2.98;;
77304;SDS011;66364;52.622;7.746;2023-07-30T01:40:19;4.08;;;2.87;;
77304;SDS011;66364;52.622;7.746;2023-07-30T01:42:21;3.95;;;3.02;;
77304;SDS011;66364;52.622;7.746;2023-07-30T01:44:22;5.37;;;2.63;;
77304;SDS011;66364;52.622;7.746;2023-07-30T01:46:23;5.57;;;2.40;;
77304;SDS011;66364;52.622;7.746;2023-07-30T01:48:24;5.10;;;2.65;;
77304;SDS011;66364;52.622;7.746;2023-07-30T01:50:25;3.93;;;2.30;;
77304;SDS011;66364;52.622;7.746;2023-07-30T01:52:26;7.65;;;2.70;;
77304;SDS011;66364;52.622;7.746;2023-07-30T01:54:27;6.43;;;3.03;;
77304;SDS011;66364;52.622;7.746;2023-07-30T01:56:28;7.63;;;2.80;;
77304;SDS011;66364;52.622;7.746;2023-07-30T01:58:29;5.17;;;2.73;;
77304;SDS011;66364;52.622;7.746;2023-07-30T02:00:30;4.13;;;2.30;;
77304;SDS011;66364;52.622;7.746;2023-07-30T02:02:31;7.50;;;3.22;;
77304;SDS011;66364;52.622;7.746;2023-07-30T02:04:32;5.30;;;2.77;;
77304;SDS011;66364;52.622;7.746;2023-07-30T02:06:33;8.17;;;3.03;;
77304;SDS011;66364;52.622;7.746;2023-07-30T02:08:34;2.55;;;2.10;;
77304;SDS011;66364;52.622;7.746;2023-07-30T02:10:35;5.90;;;2.27;;
77304;SDS011;66364;52.622;7.746;2023-07-30T02:12:36;7.20;;;3.50;;
77304;SDS011;66364;52.622;7.746;2023-07-30T02:14:37;5.90;;;2.60;;
77304;SDS011;66364;52.622;7.746;2023-07-30T02:16:38;11.03;;;2.92;;
77304;SDS011;66364;52.622;7.746;2023-07-30T02:18:39;7.08;;;3.17;;
77304;SDS011;66364;52.622;7.746;2023-07-30T02:20:40;4.73;;;2.67;;
77304;SDS011;66364;52.622;7.746;2023-07-30T02:22:41;5.93;;;2.37;;
77304;SDS011;66364;52.622;7.746;2023-07-30T02:24:42;7.17;;;3.83;;
77304;SDS011;66364;52.622;7.746;2023-07-30T02:26:43;9.55;;;2.70;;
77304;SDS011;66364;52.622;7.746;2023-07-30T02:28:44;5.53;;;3.10;;
77304;SDS011;66364;52.622;7.746;2023-07-30T02:30:45;5.93;;;2.60;;
77304;SDS011;66364;52.622;7.746;2023-07-30T02:32:46;6.90;;;3.37;;
77304;SDS011;66364;52.622;7.746;2023-07-30T02:34:47;7.53;;;2.87;;
77304;SDS011;66364;52.622;7.746;2023-07-30T02:36:48;3.50;;;2.43;;
77304;SDS011;66364;52.622;7.746;2023-07-30T02:38:49;7.25;;;3.15;;
77304;SDS011;66364;52.622;7.746;2023-07-30T02:40:52;8.90;;;3.95;;
77304;SDS011;66364;52.622;7.746;2023-07-30T02:42:53;6.05;;;2.70;;
77304;SDS011;66364;52.622;7.746;2023-07-30T02:44:55;7.75;;;3.10;;
77304;SDS011;66364;52.622;7.746;2023-07-30T02:46:55;10.40;;;3.20;;
77304;SDS011;66364;52.622;7.746;2023-07-30T02:48:57;4.95;;;3.08;;
77304;SDS011;66364;52.622;7.746;2023-07-30T02:50:58;6.00;;;3.70;;
77304;SDS011;66364;52.622;7.746;2023-07-30T02:52:59;6.90;;;3.20;;
77304;SDS011;66364;52.622;7.746;2023-07-30T02:54:59;5.57;;;2.90;;
77304;SDS011;66364;52.622;7.746;2023-07-30T02:57:01;4.12;;;3.70;;
77304;SDS011;66364;52.622;7.746;2023-07-30T02:59:02;6.53;;;3.63;;
77304;SDS011;66364;52.622;7.746;2023-07-30T03:01:06;4.70;;;3.00;;
77304;SDS011;66364;52.622;7.746;2023-07-30T03:03:07;5.03;;;3.27;;
77304;SDS011;66364;52.622;7.746;2023-07-30T03:05:08;5.50;;;3.70;;
77304;SDS011;66364;52.622;7.746;2023-07-30T03:07:09;4.80;;;4.00;;
77304;SDS011;66364;52.622;7.746;2023-07-30T03:09:10;9.57;;;4.80;;
77304;SDS011;66364;52.622;7.746;2023-07-30T03:11:11;4.67;;;3.80;;
77304;SDS011;66364;52.622;7.746;2023-07-30T03:13:12;6.67;;;3.90;;
77304;SDS011;66364;52.622;7.746;2023-07-30T03:15:12;7.57;;;4.77;;
77304;SDS011;66364;52.622;7.746;2023-07-30T03:17:13;11.27;;;3.80;;
77304;SDS011;66364;52.622;7.746;2023-07-30T03:19:14;9.20;;;4.60;;
77304;SDS011;66364;52.622;7.746;2023-07-30T03:21:15;14.73;;;4.42;;
77304;SDS011;66364;52.622;7.746;2023-07-30T03:23:16;6.70;;;3.97;;
77304;SDS011;66364;52.622;7.746;2023-07-30T03:25:18;8.73;;;3.58;;
77304;SDS011;66364;52.622;7.746;2023-07-30T03:27:19;11.80;;;5.45;;
77304;SDS011;66364;52.622;7.746;2023-07-30T03:29:20;6.65;;;3.80;;
77304;SDS011;66364;52.622;7.746;2023-07-30T03:31:21;7.77;;;3.27;;
77304;SDS011;66364;52.622;7.746;2023-07-30T03:33:22;5.87;;;3.80;;
77304;SDS011;66364;52.622;7.746;2023-07-30T03:35:23;6.55;;;4.03;;
77304;SDS011;66364;52.622;7.746;2023-07-30T03:37:24;9.08;;;5.45;;
77304;SDS011;66364;52.622;7.746;2023-07-30T03:39:26;6.53;;;4.67;;
77304;SDS011;66364;52.622;7.746;2023-07-30T03:41:27;5.08;;;4.15;;
77304;SDS011;66364;52.622;7.746;2023-07-30T03:43:28;13.40;;;4.00;;
77304;SDS011;66364;52.622;7.746;2023-07-30T03:45:29;10.63;;;5.30;;
77304;SDS011;66364;52.622;7.746;2023-07-30T03:47:30;9.80;;;4.25;;
77304;SDS011;66364;52.622;7.746;2023-07-30T03:49:37;11.80;;;3.40;;
77304;SDS011;66364;52.622;7.746;2023-07-30T03:51:38;9.95;;;4.60;;
77304;SDS011;66364;52.622;7.746;2023-07-30T03:53:39;9.10;;;3.62;;
77304;SDS011;66364;52.622;7.746;2023-07-30T03:55:40;8.70;;;4.05;;
77304;SDS011;66364;52.622;7.746;2023-07-30T03:57:41;12.93;;;3.90;;
77304;SDS011;66364;52.622;7.746;2023-07-30T03:59:42;5.43;;;3.27;;
77304;SDS011;66364;52.622;7.746;2023-07-30T04:01:43;8.50;;;3.83;;
77304;SDS011;66364;52.622;7.746;2023-07-30T04:03:44;9.30;;;3.37;;
77304;SDS011;66364;52.622;7.746;2023-07-30T04:05:45;7.97;;;4.33;;
77304;SDS011;66364;52.622;7.746;2023-07-30T04:07:46;6.80;;;4.03;;
77304;SDS011;66364;52.622;7.746;2023-07-30T04:09:49;7.62;;;4.40;;
77304;SDS011;66364;52.622;7.746;2023-07-30T04:11:50;9.87;;;4.27;;
77304;SDS011;66364;52.622;7.746;2023-07-30T04:13:51;7.50;;;4.07;;
77304;SDS011;66364;52.622;7.746;2023-07-30T04:15:52;10.87;;;4.50;;
77304;SDS011;66364;52.622;7.746;2023-07-30T04:17:53;7.47;;;3.47;;
77304;SDS011;66364;52.622;7.746;2023-07-30T04:19:54;8.23;;;3.40;;
77304;SDS011;66364;52.622;7.746;2023-07-30T04:21:55;6.37;;;3.17;;
77304;SDS011;66364;52.622;7.746;2023-07-30T04:23:56;9.30;;;3.95;;
77304;SDS011;66364;52.622;7.746;2023-07-30T04:25:58;5.35;;;3.65;;
77304;SDS011;66364;52.622;7.746;2023-07-30T04:27:59;7.40;;;3.75;;
77304;SDS011;66364;52.622;7.746;2023-07-30T04:30:00;6.17;;;3.90;;
77304;SDS011;66364;52.622;7.746;2023-07-30T04:32:02;7.15;;;3.95;;
77304;SDS011;66364;52.622;7.746;2023-07-30T04:34:03;8.05;;;3.92;;
77304;SDS011;66364;52.622;7.746;2023-07-30T04:36:04;11.77;;;4.90;;
77304;SDS011;66364;52.622;7.746;2023-07-30T04:38:05;5.30;;;3.70;;
77304;SDS011;66364;52.622;7.746;2023-07-30T04:40:07;7.57;;;3.70;;
77304;SDS011;66364;52.622;7.746;2023-07-30T04:42:08;9.15;;;3.65;;
77304;SDS011;66364;52.622;7.746;2023-07-30T04:44:09;10.15;;;4.25;;
77304;SDS011;66364;52.622;7.746;2023-07-30T04:46:10;10.47;;;4.40;;
77304;SDS011;66364;52.622;7.746;2023-07-30T04:48:11;10.67;;;4.73;;
77304;SDS011;66364;52.622;7.746;2023-07-30T04:50:12;10.60;;;5.00;;
77304;SDS011;66364;52.622;7.746;2023-07-30T04:52:13;9.23;;;3.77;;
77304;SDS011;66364;52.622;7.746;2023-07-30T04:54:14;10.25;;;4.03;;
77304;SDS011;66364;52.622;7.746;2023-07-30T04:56:15;10.97;;;3.40;;
77304;SDS011;66364;52.622;7.746;2023-07-30T04:58:16;8.43;;;4.70;;
77304;SDS011;66364;52.622;7.746;2023-07-30T05:00:17;8.38;;;3.58;;
77304;SDS011;66364;52.622;7.746;2023-07-30T05:02:18;9.27;;;4.13;;
77304;SDS011;66364;52.622;7.746;2023-07-30T05:04:19;12.23;;;4.13;;
77304;SDS011;66364;52.622;7.746;2023-07-30T05:06:20;8.73;;;4.73;;
77304;SDS011;66364;52.622;7.746;2023-07-30T05:08:21;8.87;;;4.30;;
77304;SDS011;66364;52.622;7.746;2023-07-30T05:10:22;7.60;;;4.03;;
77304;SDS011;66364;52.622;7.746;2023-07-30T05:12:23;11.70;;;3.90;;
77304;SDS011;66364;52.622;7.746;2023-07-30T05:14:24;8.63;;;4.93;;
77304;SDS011;66364;52.622;7.746;2023-07-30T05:16:25;11.68;;;4.72;;
77304;SDS011;66364;52.622;7.746;2023-07-30T05:18:26;9.17;;;5.50;;
77304;SDS011;66364;52.622;7.746;2023-07-30T05:20:27;9.40;;;4.00;;
77304;SDS011;66364;52.622;7.746;2023-07-30T05:22:28;9.08;;;4.25;;
77304;SDS011;66364;52.622;7.746;2023-07-30T05:24:29;7.50;;;4.10;;
77304;SDS011;66364;52.622;7.746;2023-07-30T05:26:30;6.83;;;3.98;;
77304;SDS011;66364;52.622;7.746;2023-07-30T05:28:31;8.48;;;3.87;;
77304;SDS011;66364;52.622;7.746;2023-07-30T05:30:32;14.00;;;4.00;;
77304;SDS011;66364;52.622;7.746;2023-07-30T05:32:33;7.67;;;3.57;;
77304;SDS011;66364;52.622;7.746;2023-07-30T05:34:34;11.93;;;5.42;;
77304;SDS011;66364;52.622;7.746;2023-07-30T05:36:34;8.83;;;4.00;;
77304;SDS011;66364;52.622;7.746;2023-07-30T05:38:35;9.03;;;4.70;;
77304;SDS011;66364;52.622;7.746;2023-07-30T05:40:36;6.97;;;4.30;;
77304;SDS011;66364;52.622;7.746;2023-07-30T05:42:38;9.40;;;5.00;;
77304;SDS011;66364;52.622;7.746;2023-07-30T05:44:39;9.70;;;4.70;;
77304;SDS011;66364;52.622;7.746;2023-07-30T05:46:40;8.98;;;5.03;;
77304;SDS011;66364;52.622;7.746;2023-07-30T05:48:41;13.60;;;6.23;;
77304;SDS011;66364;52.622;7.746;2023-07-30T05:50:42;8.37;;;5.47;;
77304;SDS011;66364;52.622;7.746;2023-07-30T05:52:43;15.73;;;4.70;;
77304;SDS011;66364;52.622;7.746;2023-07-30T05:54:44;12.37;;;5.20;;
77304;SDS011;66364;52.622;7.746;2023-07-30T05:56:45;6.60;;;4.67;;
77304;SDS011;66364;52.622;7.746;2023-07-30T05:58:46;11.90;;;4.60;;
77304;SDS011;66364;52.622;7.746;2023-07-30T06:00:47;12.00;;;5.13;;
77304;SDS011;66364;52.622;7.746;2023-07-30T06:02:47;10.50;;;5.77;;
77304;SDS011;66364;52.622;7.746;2023-07-30T06:04:48;7.47;;;5.10;;
77304;SDS011;66364;52.622;7.746;2023-07-30T06:06:49;14.10;;;6.93;;
77304;SDS011;66364;52.622;7.746;2023-07-30T06:08:50;13.60;;;6.83;;
77304;SDS011;66364;52.622;7.746;2023-07-30T06:10:51;11.43;;;6.70;;
77304;SDS011;66364;52.622;7.746;2023-07-30T06:12:51;15.10;;;6.20;;
77304;SDS011;66364;52.622;7.746;2023-07-30T06:14:52;13.80;;;6.10;;
77304;SDS011;66364;52.622;7.746;2023-07-30T06:16:54;16.67;;;7.00;;
77304;SDS011;66364;52.622;7.746;2023-07-30T06:18:55;12.83;;;5.77;;
77304;SDS011;66364;52.622;7.746;2023-07-30T06:20:56;9.53;;;6.87;;
77304;SDS011;66364;52.622;7.746;2023-07-30T06:22:57;11.27;;;7.10;;
77304;SDS011;66364;52.622;7.746;2023-07-30T06:24:58;17.80;;;7.10;;
77304;SDS011;66364;52.622;7.746;2023-07-30T06:26:59;20.02;;;7.25;;
77304;SDS011;66364;52.622;7.746;2023-07-30T06:29:00;14.37;;;5.97;;
77304;SDS011;66364;52.622;7.746;2023-07-30T06:31:02;14.28;;;6.70;;
77304;SDS011;66364;52.622;7.746;2023-07-30T06:33:04;10.90;;;6.00;;
77304;SDS011;66364;52.622;7.746;2023-07-30T06:35:11;11.10;;;7.12;;
77304;SDS011;66364;52.622;7.746;2023-07-30T06:37:12;17.75;;;8.50;;
77304;SDS011;66364;52.622;7.746;2023-07-30T06:39:13;17.70;;;7.58;;
77304;SDS011;66364;52.622;7.746;2023-07-30T06:41:14;11.95;;;7.60;;
77304;SDS011;66364;52.622;7.746;2023-07-30T06:43:17;15.00;;;7.90;;
77304;SDS011;66364;52.622;7.746;2023-07-30T06:45:18;16.52;;;8.38;;
77304;SDS011;66364;52.622;7.746;2023-07-30T06:47:20;16.57;;;7.92;;
77304;SDS011;66364;52.622;7.746;2023-07-30T06:49:21;11.30;;;7.53;;
77304;SDS011;66364;52.622;7.746;2023-07-30T06:51:23;18.57;;;8.00;;
77304;SDS011;66364;52.622;7.746;2023-07-30T06:53:25;15.75;;;8.00;;
77304;SDS011;66364;52.622;7.746;2023-07-30T06:55:26;16.60;;;9.33;;
77304;SDS011;66364;52.622;7.746;2023-07-30T06:57:27;17.07;;;9.33;;
77304;SDS011;66364;52.622;7.746;2023-07-30T06:59:28;19.80;;;9.90;;
77304;SDS011;66364;52.622;7.746;2023-07-30T07:01:29;13.27;;;9.87;;
77304;SDS011;66364;52.622;7.746;2023-07-30T07:03:30;19.03;;;9.27;;
77304;SDS011;66364;52.622;7.746;2023-07-30T07:05:31;17.48;;;11.15;;
77304;SDS011;66364;52.622;7.746;2023-07-30T07:07:32;22.02;;;9.58;;
77304;SDS011;66364;52.622;7.746;2023-07-30T07:09:33;20.40;;;10.67;;
77304;SDS011;66364;52.622;7.746;2023-07-30T07:11:34;21.12;;;9.50;;
77304;SDS011;66364;52.622;7.746;2023-07-30T07:13:35;14.47;;;9.37;;
77304;SDS011;66364;52.622;7.746;2023-07-30T07:15:36;20.90;;;9.50;;
77304;SDS011;66364;52.622;7.746;2023-07-30T07:17:37;20.92;;;9.90;;
77304;SDS011;66364;52.622;7.746;2023-07-30T07:19:38;17.03;;;8.67;;
77304;SDS011;66364;52.622;7.746;2023-07-30T07:21:39;25.85;;;10.30;;
77304;SDS011;66364;52.622;7.746;2023-07-30T07:23:41;33.05;;;9.90;;
77304;SDS011;66364;52.622;7.746;2023-07-30T07:25:43;18.73;;;9.03;;
77304;SDS011;66364;52.622;7.746;2023-07-30T07:27:44;20.90;;;10.63;;
77304;SDS011;66364;52.622;7.746;2023-07-30T07:29:45;21.93;;;9.47;;
77304;SDS011;66364;52.622;7.746;2023-07-30T07:31:46;19.10;;;9.20;;
77304;SDS011;66364;52.622;7.746;2023-07-30T07:33:47;17.40;;;9.73;;
77304;SDS011;66364;52.622;7.746;2023-07-30T07:35:47;23.50;;;10.70;;
77304;SDS011;66364;52.622;7.746;2023-07-30T07:37:48;20.70;;;10.07;;
77304;SDS011;66364;52.622;7.746;2023-07-30T07:39:50;29.07;;;12.75;;
77304;SDS011;66364;52.622;7.746;2023-07-30T07:41:50;20.57;;;10.70;;
77304;SDS011;66364;52.622;7.746;2023-07-30T07:43:52;18.60;;;8.73;;
77304;SDS011;66364;52.622;7.746;2023-07-30T07:45:53;14.78;;;9.50;;
77304;SDS011;66364;52.622;7.746;2023-07-30T07:47:54;19.33;;;9.60;;
77304;SDS011;66364;52.622;7.746;2023-07-30T07:49:55;20.73;;;11.43;;
77304;SDS011;66364;52.622;7.746;2023-07-30T07:51:56;22.03;;;11.07;;
77304;SDS011;66364;52.622;7.746;2023-07-30T07:53:56;18.60;;;11.20;;
77304;SDS011;66364;52.622;7.746;2023-07-30T07:55:58;21.07;;;11.30;;
77304;SDS011;66364;52.622;7.746;2023-07-30T07:57:59;19.80;;;10.28;;
77304;SDS011;66364;52.622;7.746;2023-07-30T08:00:04;15.63;;;9.23;;
77304;SDS011;66364;52.622;7.746;2023-07-30T08:02:06;19.35;;;8.95;;
77304;SDS011;66364;52.622;7.746;2023-07-30T08:04:07;19.67;;;10.50;;
77304;SDS011;66364;52.622;7.746;2023-07-30T08:06:08;22.00;;;10.67;;
77304;SDS011;66364;52.622;7.746;2023-07-30T08:08:09;21.03;;;8.83;;
77304;SDS011;66364;52.622;7.746;2023-07-30T08:10:12;21.37;;;9.60;;
77304;SDS011;66364;52.622;7.746;2023-07-30T08:12:13;14.10;;;9.53;;
77304;SDS011;66364;52.622;7.746;2023-07-30T08:14:15;16.35;;;9.50;;
77304;SDS011;66364;52.622;7.746;2023-07-30T08:16:15;18.13;;;8.30;;
77304;SDS011;66364;52.622;7.746;2023-07-30T08:18:18;22.35;;;9.13;;
77304;SDS011;66364;52.622;7.746;2023-07-30T08:20:19;16.65;;;7.97;;
77304;SDS011;66364;52.622;7.746;2023-07-30T08:22:21;21.70;;;8.60;;
77304;SDS011;66364;52.622;7.746;2023-07-30T08:24:22;19.63;;;8.73;;
77304;SDS011;66364;52.622;7.746;2023-07-30T08:26:23;15.58;;;8.83;;
77304;SDS011;66364;52.622;7.746;2023-07-30T08:28:31;21.23;;;8.60;;
77304;SDS011;66364;52.622;7.746;2023-07-30T08:30:32;16.30;;;7.80;;
77304;SDS011;66364;52.622;7.746;2023-07-30T08:32:33;11.80;;;7.42;;
77304;SDS011;66364;52.622;7.746;2023-07-30T08:34:34;12.65;;;7.87;;
77304;SDS011;66364;52.622;7.746;2023-07-30T08:36:35;10.50;;;6.43;;
77304;SDS011;66364;52.622;7.746;2023-07-30T08:38:36;18.25;;;8.03;;
77304;SDS011;66364;52.622;7.746;2023-07-30T08:40:38;10.93;;;8.20;;
77304;SDS011;66364;52.622;7.746;2023-07-30T08:42:39;16.43;;;8.23;;
77304;SDS011;66364;52.622;7.746;2023-07-30T08:44:42;14.98;;;8.10;;
77304;SDS011;66364;52.622;7.746;2023-07-30T08:46:43;16.02;;;9.03;;
77304;SDS011;66364;52.622;7.746;2023-07-30T08:48:44;13.30;;;8.68;;
77304;SDS011;66364;52.622;7.746;2023-07-30T08:50:45;12.47;;;7.40;;
77304;SDS011;66364;52.622;7.746;2023-07-30T08:52:50;13.75;;;8.60;;
77304;SDS011;66364;52.622;7.746;2023-07-30T08:54:52;14.05;;;7.17;;
77304;SDS011;66364;52.622;7.746;2023-07-30T08:56:53;16.07;;;7.62;;
77304;SDS011;66364;52.622;7.746;2023-07-30T08:58:55;22.30;;;8.73;;
77304;SDS011;66364;52.622;7.746;2023-07-30T09:01:01;9.73;;;6.95;;
77304;SDS011;66364;52.622;7.746;2023-07-30T09:03:04;14.98;;;9.20;;
77304;SDS011;66364;52.622;7.746;2023-07-30T09:05:06;17.57;;;7.97;;
77304;SDS011;66364;52.622;7.746;2023-07-30T09:07:11;15.05;;;7.20;;
77304;SDS011;66364;52.622;7.746;2023-07-30T09:09:11;14.05;;;6.87;;
77304;SDS011;66364;52.622;7.746;2023-07-30T09:11:14;13.00;;;7.87;;
77304;SDS011;66364;52.622;7.746;2023-07-30T09:13:15;21.27;;;7.93;;
77304;SDS011;66364;52.622;7.746;2023-07-30T09:15:30;13.18;;;7.17;;
77304;SDS011;66364;52.622;7.746;2023-07-30T09:17:32;14.55;;;6.80;;
77304;SDS011;66364;52.622;7.746;2023-07-30T09:19:40;12.40;;;7.00;;
77304;SDS011;66364;52.622;7.746;2023-07-30T09:21:38;19.07;;;7.17;;
77304;SDS011;66364;52.622;7.746;2023-07-30T09:23:46;12.18;;;5.67;;
77304;SDS011;66364;52.622;7.746;2023-07-30T09:25:47;18.23;;;7.70;;
77304;SDS011;66364;52.622;7.746;2023-07-30T09:27:51;11.83;;;6.12;;
77304;SDS011;66364;52.622;7.746;2023-07-30T09:29:53;12.82;;;6.20;;
77304;SDS011;66364;52.622;7.746;2023-07-30T09:31:54;16.12;;;7.42;;
77304;SDS011;66364;52.622;7.746;2023-07-30T09:33:56;9.80;;;5.35;;
77304;SDS011;66364;52.622;7.746;2023-07-30T09:35:57;14.30;;;7.40;;
77304;SDS011;66364;52.622;7.746;2023-07-30T09:37:59;11.50;;;6.40;;
77304;SDS011;66364;52.622;7.746;2023-07-30T09:40:09;13.70;;;5.80;;
77304;SDS011;66364;52.622;7.746;2023-07-30T09:42:11;12.25;;;6.85;;
77304;SDS011;66364;52.622;7.746;2023-07-30T09:44:19;8.73;;;6.25;;
77304;SDS011;66364;52.622;7.746;2023-07-30T09:46:21;11.45;;;5.30;;
77304;SDS011;66364;52.622;7.746;2023-07-30T09:48:22;8.75;;;5.25;;
77304;SDS011;66364;52.622;7.746;2023-07-30T09:50:23;10.63;;;5.70;;
77304;SDS011;66364;52.622;7.746;2023-07-30T09:52:24;10.47;;;5.80;;
77304;SDS011;66364;52.622;7.746;2023-07-30T09:54:25;7.07;;;4.83;;
77304;SDS011;66364;52.622;7.746;2023-07-30T09:56:27;12.18;;;4.80;;
77304;SDS011;66364;52.622;7.746;2023-07-30T09:58:30;11.70;;;5.60;;
77304;SDS011;66364;52.622;7.746;2023-07-30T10:00:31;7.78;;;5.10;;
77304;SDS011;66364;52.622;7.746;2023-07-30T10:02:38;12.20;;;6.00;;
77304;SDS011;66364;52.622;7.746;2023-07-30T10:04:43;11.48;;;5.60;;
77304;SDS011;66364;52.622;7.746;2023-07-30T10:08:53;12.78;;;6.08;;
77304;SDS011;66364;52.622;7.746;2023-07-30T10:10:56;7.90;;;5.50;;
77304;SDS011;66364;52.622;7.746;2023-07-30T10:13:00;9.45;;;5.00;;
77304;SDS011;66364;52.622;7.746;2023-07-30T10:15:04;9.68;;;5.42;;
77304;SDS011;66364;52.622;7.746;2023-07-30T10:17:09;9.43;;;5.83;;
77304;SDS011;66364;52.622;7.746;2023-07-30T10:19:11;10.50;;;6.92;;
77304;SDS011;66364;52.622;7.746;2023-07-30T10:21:21;9.30;;;5.13;;
77304;SDS011;66364;52.622;7.746;2023-07-30T10:23:17;9.00;;;5.50;;
77304;SDS011;66364;52.622;7.746;2023-07-30T10:25:19;10.98;;;6.60;;
77304;SDS011;66364;52.622;7.746;2023-07-30T10:27:23;14.13;;;5.50;;
77304;SDS011;66364;52.622;7.746;2023-07-30T10:29:26;9.05;;;5.62;;
77304;SDS011;66364;52.622;7.746;2023-07-30T10:31:35;4.90;;;4.37;;
77304;SDS011;66364;52.622;7.746;2023-07-30T10:33:44;11.12;;;5.12;;
77304;SDS011;66364;52.622;7.746;2023-07-30T10:35:54;6.72;;;4.62;;
77304;SDS011;66364;52.622;7.746;2023-07-30T10:37:55;7.60;;;4.92;;
77304;SDS011;66364;52.622;7.746;2023-07-30T10:39:56;7.20;;;4.90;;
77304;SDS011;66364;52.622;7.746;2023-07-30T10:42:00;8.20;;;4.35;;
77304;SDS011;66364;52.622;7.746;2023-07-30T10:44:01;10.58;;;4.92;;
77304;SDS011;66364;52.622;7.746;2023-07-30T10:46:02;8.45;;;4.37;;
77304;SDS011;66364;52.622;7.746;2023-07-30T10:48:05;8.93;;;4.75;;
77304;SDS011;66364;52.622;7.746;2023-07-30T10:50:07;5.95;;;4.05;;
77304;SDS011;66364;52.622;7.746;2023-07-30T10:52:11;7.65;;;4.20;;
77304;SDS011;66364;52.622;7.746;2023-07-30T10:54:12;7.72;;;5.05;;
77304;SDS011;66364;52.622;7.746;2023-07-30T10:56:22;6.10;;;3.47;;
77304;SDS011;66364;52.622;7.746;2023-07-30T10:58:23;11.05;;;4.37;;
77304;SDS011;66364;52.622;7.746;2023-07-30T11:00:25;6.70;;;3.70;;
77304;SDS011;66364;52.622;7.746;2023-07-30T11:02:27;11.03;;;4.85;;
77304;SDS011;66364;52.622;7.746;2023-07-30T11:04:29;9.25;;;4.78;;
77304;SDS011;66364;52.622;7.746;2023-07-30T11:06:34;6.40;;;4.22;;
77304;SDS011;66364;52.622;7.746;2023-07-30T11:08:38;6.93;;;4.30;;
77304;SDS011;66364;52.622;7.746;2023-07-30T11:10:44;8.35;;;4.37;;
77304;SDS011;66364;52.622;7.746;2023-07-30T11:12:47;8.13;;;4.95;;
77304;SDS011;66364;52.622;7.746;2023-07-30T11:14:49;8.50;;;4.35;;
77304;SDS011;66364;52.622;7.746;2023-07-30T11:16:53;9.50;;;4.20;;
77304;SDS011;66364;52.622;7.746;2023-07-30T11:18:56;5.83;;;3.95;;
77304;SDS011;66364;52.622;7.746;2023-07-30T11:21:07;9.48;;;3.85;;
77304;SDS011;66364;52.622;7.746;2023-07-30T11:23:18;7.62;;;4.35;;
77304;SDS011;66364;52.622;7.746;2023-07-30T11:25:22;9.48;;;4.08;;
77304;SDS011;66364;52.622;7.746;2023-07-30T11:27:24;5.35;;;4.12;;
77304;SDS011;66364;52.622;7.746;2023-07-30T11:29:25;7.30;;;4.60;;
77304;SDS011;66364;52.622;7.746;2023-07-30T11:31:27;7.45;;;4.35;;
77304;SDS011;66364;52.622;7.746;2023-07-30T11:33:29;7.65;;;3.33;;
77304;SDS011;66364;52.622;7.746;2023-07-30T11:35:30;5.10;;;3.50;;
77304;SDS011;66364;52.622;7.746;2023-07-30T11:37:32;9.50;;;3.95;;
77304;SDS011;66364;52.622;7.746;2023-07-30T11:39:33;5.42;;;4.12;;
77304;SDS011;66364;52.622;7.746;2023-07-30T11:41:34;11.15;;;4.08;;
77304;SDS011;66364;52.622;7.746;2023-07-30T11:43:41;7.75;;;4.62;;
77304;SDS011;66364;52.622;7.746;2023-07-30T11:45:40;11.25;;;4.87;;
77304;SDS011;66364;52.622;7.746;2023-07-30T11:47:41;9.58;;;5.70;;
77304;SDS011;66364;52.622;7.746;2023-07-30T11:49:53;10.08;;;5.58;;
77304;SDS011;66364;52.622;7.746;2023-07-30T11:51:48;9.08;;;5.55;;
77304;SDS011;66364;52.622;7.746;2023-07-30T11:53:52;14.03;;;5.67;;
77304;SDS011;66364;52.622;7.746;2023-07-30T11:55:55;10.13;;;6.87;;
77304;SDS011;66364;52.622;7.746;2023-07-30T11:57:57;7.83;;;5.60;;
77304;SDS011;66364;52.622;7.746;2023-07-30T11:59:59;9.85;;;5.65;;
77304;SDS011;66364;52.622;7.746;2023-07-30T12:04:06;9.73;;;5.70;;
77304;SDS011;66364;52.622;7.746;2023-07-30T12:06:07;8.50;;;6.53;;
77304;SDS011;66364;52.622;7.746;2023-07-30T12:08:16;13.10;;;7.00;;
77304;SDS011;66364;52.622;7.746;2023-07-30T12:10:18;12.37;;;6.35;;
77304;SDS011;66364;52.622;7.746;2023-07-30T12:12:19;7.83;;;7.03;;